sensor_id;sensor_type;location;lat;lon;timestamp;P1;durP1;ratioP1;P2;durP2;ratioP2
2542;SDS011;1116;51.502;7.414;2023-07-20T00:00:11;7.80;;;7.10;;
2542;SDS011;1116;51.502;7.414;2023-07-20T00:02:45;8.27;;;7.57;;
2542;SDS011;1116;51.502;7.414;2023-07-20T00:05:20;8.50;;;7.20;;
2542;SDS011;1116;51.502;7.414;2023-07-20T00:07:52;9.37;;;8.47;;
2542;SDS011;1116;51.502;7.414;2023-07-20T00:10:25;9.70;;;8.77;;
2542;SDS011;1116;51.502;7.414;2023-07-20T00:12:57;11.70;;;9.30;;
2542;SDS011;1116;51.502;7.414;2023-07-20T00:15:28;9.73;;;8.17;;
2542;SDS011;1116;51.502;7.414;2023-07-20T00:18:01;8.73;;;7.83;;
2542;SDS011;1116;51.502;7.414;2023-07-20T00:20:32;10.40;;;8.77;;
2542;SDS011;1116;51.502;7.414;2023-07-20T00:23:03;9.57;;;7.60;;
2542;SDS011;1116;51.502;7.414;2023-07-20T00:25:34;15.90;;;8.60;;
2542;SDS011;1116;51.502;7.414;2023-07-20T00:28:05;10.10;;;8.50;;
2542;SDS011;1116;51.502;7.414;2023-07-20T00:30:37;9.50;;;8.60;;
2542;SDS011;1116;51.502;7.414;2023-07-20T00:33:11;10.03;;;8.13;;
2542;SDS011;1116;51.502;7.414;2023-07-20T00:35:43;9.93;;;8.83;;
2542;SDS011;1116;51.502;7.414;2023-07-20T00:38:14;11.13;;;8.23;;
2542;SDS011;1116;51.502;7.414;2023-07-20T00:40:48;9.23;;;8.13;;
2542;SDS011;1116;51.502;7.414;2023-07-20T00:43:19;10.60;;;9.10;;
2542;SDS011;1116;51.502;7.414;2023-07-20T00:45:50;9.83;;;8.40;;
2542;SDS011;1116;51.502;7.414;2023-07-20T00:48:23;9.40;;;8.40;;
2542;SDS011;1116;51.502;7.414;2023-07-20T00:50:55;9.97;;;8.50;;
2542;SDS011;1116;51.502;7.414;2023-07-20T00:53:26;11.00;;;7.90;;
2542;SDS011;1116;51.502;7.414;2023-07-20T00:55:58;9.70;;;7.90;;
2542;SDS011;1116;51.502;7.414;2023-07-20T00:58:29;11.00;;;9.00;;
2542;SDS011;1116;51.502;7.414;2023-07-20T01:01:00;10.03;;;7.90;;
2542;SDS011;1116;51.502;7.414;2023-07-20T01:03:35;8.53;;;7.40;;
2542;SDS011;1116;51.502;7.414;2023-07-20T01:06:09;10.27;;;7.70;;
2542;SDS011;1116;51.502;7.414;2023-07-20T01:08:47;9.00;;;7.40;;
2542;SDS011;1116;51.502;7.414;2023-07-20T01:11:28;9.00;;;7.80;;
2542;SDS011;1116;51.502;7.414;2023-07-20T01:14:06;10.20;;;7.30;;
2542;SDS011;1116;51.502;7.414;2023-07-20T01:16:37;10.33;;;7.97;;
2542;SDS011;1116;51.502;7.414;2023-07-20T01:19:12;11.10;;;8.53;;
2542;SDS011;1116;51.502;7.414;2023-07-20T01:21:45;10.40;;;8.40;;
2542;SDS011;1116;51.502;7.414;2023-07-20T01:27:35;10.37;;;8.73;;
2542;SDS011;1116;51.502;7.414;2023-07-20T01:30:25;11.27;;;9.07;;
2542;SDS011;1116;51.502;7.414;2023-07-20T01:33:12;10.70;;;8.40;;
2542;SDS011;1116;51.502;7.414;2023-07-20T01:35:45;13.83;;;9.43;;
2542;SDS011;1116;51.502;7.414;2023-07-20T01:38:23;10.93;;;8.30;;
2542;SDS011;1116;51.502;7.414;2023-07-20T01:40:54;9.10;;;8.20;;
2542;SDS011;1116;51.502;7.414;2023-07-20T01:43:27;11.13;;;9.37;;
2542;SDS011;1116;51.502;7.414;2023-07-20T01:45:57;10.00;;;9.00;;
2542;SDS011;1116;51.502;7.414;2023-07-20T01:48:31;10.13;;;8.23;;
2542;SDS011;1116;51.502;7.414;2023-07-20T01:51:02;10.27;;;9.17;;
2542;SDS011;1116;51.502;7.414;2023-07-20T01:53:33;10.27;;;8.70;;
2542;SDS011;1116;51.502;7.414;2023-07-20T01:56:05;10.60;;;9.00;;
2542;SDS011;1116;51.502;7.414;2023-07-20T01:58:36;9.40;;;8.53;;
2542;SDS011;1116;51.502;7.414;2023-07-20T02:01:07;15.87;;;9.20;;
2542;SDS011;1116;51.502;7.414;2023-07-20T02:03:41;11.20;;;9.50;;
2542;SDS011;1116;51.502;7.414;2023-07-20T02:06:11;11.97;;;8.97;;
2542;SDS011;1116;51.502;7.414;2023-07-20T02:08:42;10.43;;;9.10;;
2542;SDS011;1116;51.502;7.414;2023-07-20T02:11:13;9.90;;;8.97;;
2542;SDS011;1116;51.502;7.414;2023-07-20T02:13:44;10.97;;;9.87;;
2542;SDS011;1116;51.502;7.414;2023-07-20T02:16:15;11.20;;;10.00;;
2542;SDS011;1116;51.502;7.414;2023-07-20T02:18:49;12.27;;;9.87;;
2542;SDS011;1116;51.502;7.414;2023-07-20T02:21:20;12.90;;;8.77;;
2542;SDS011;1116;51.502;7.414;2023-07-20T02:23:51;10.70;;;9.30;;
2542;SDS011;1116;51.502;7.414;2023-07-20T02:26:22;14.50;;;10.30;;
2542;SDS011;1116;51.502;7.414;2023-07-20T02:28:53;12.40;;;10.20;;
2542;SDS011;1116;51.502;7.414;2023-07-20T02:31:24;11.73;;;9.70;;
2542;SDS011;1116;51.502;7.414;2023-07-20T02:33:57;13.47;;;9.70;;
2542;SDS011;1116;51.502;7.414;2023-07-20T02:36:29;10.33;;;9.07;;
2542;SDS011;1116;51.502;7.414;2023-07-20T02:39:00;11.43;;;8.00;;
2542;SDS011;1116;51.502;7.414;2023-07-20T02:41:32;11.83;;;9.07;;
2542;SDS011;1116;51.502;7.414;2023-07-20T02:44:04;10.23;;;9.33;;
2542;SDS011;1116;51.502;7.414;2023-07-20T02:46:35;13.60;;;9.43;;
2542;SDS011;1116;51.502;7.414;2023-07-20T02:49:08;12.77;;;10.03;;
2542;SDS011;1116;51.502;7.414;2023-07-20T02:51:42;13.30;;;9.70;;
2542;SDS011;1116;51.502;7.414;2023-07-20T02:54:14;12.53;;;9.70;;
2542;SDS011;1116;51.502;7.414;2023-07-20T02:56:45;10.37;;;9.30;;
2542;SDS011;1116;51.502;7.414;2023-07-20T02:59:16;12.30;;;9.17;;
2542;SDS011;1116;51.502;7.414;2023-07-20T03:01:47;12.37;;;9.50;;
2542;SDS011;1116;51.502;7.414;2023-07-20T03:04:20;11.43;;;10.17;;
2542;SDS011;1116;51.502;7.414;2023-07-20T03:06:52;14.10;;;10.40;;
2542;SDS011;1116;51.502;7.414;2023-07-20T03:09:23;14.73;;;10.93;;
2542;SDS011;1116;51.502;7.414;2023-07-20T03:11:54;18.60;;;11.20;;
2542;SDS011;1116;51.502;7.414;2023-07-20T03:14:25;15.03;;;11.70;;
2542;SDS011;1116;51.502;7.414;2023-07-20T03:16:56;11.00;;;9.30;;
2542;SDS011;1116;51.502;7.414;2023-07-20T03:19:30;12.93;;;10.20;;
2542;SDS011;1116;51.502;7.414;2023-07-20T03:22:01;13.23;;;10.57;;
2542;SDS011;1116;51.502;7.414;2023-07-20T03:24:32;11.00;;;9.90;;
2542;SDS011;1116;51.502;7.414;2023-07-20T03:27:03;13.27;;;11.13;;
2542;SDS011;1116;51.502;7.414;2023-07-20T03:29:34;15.17;;;10.80;;
2542;SDS011;1116;51.502;7.414;2023-07-20T03:32:05;13.97;;;10.00;;
2542;SDS011;1116;51.502;7.414;2023-07-20T03:34:39;11.47;;;10.27;;
2542;SDS011;1116;51.502;7.414;2023-07-20T03:37:12;14.60;;;10.20;;
2542;SDS011;1116;51.502;7.414;2023-07-20T03:39:44;10.97;;;9.87;;
2542;SDS011;1116;51.502;7.414;2023-07-20T03:42:14;13.93;;;9.60;;
2542;SDS011;1116;51.502;7.414;2023-07-20T03:44:48;12.03;;;10.80;;
2542;SDS011;1116;51.502;7.414;2023-07-20T03:47:19;11.33;;;9.67;;
2542;SDS011;1116;51.502;7.414;2023-07-20T03:49:54;13.23;;;10.40;;
2542;SDS011;1116;51.502;7.414;2023-07-20T03:52:25;11.57;;;10.37;;
2542;SDS011;1116;51.502;7.414;2023-07-20T03:54:56;12.87;;;11.33;;
2542;SDS011;1116;51.502;7.414;2023-07-20T03:57:27;12.20;;;10.83;;
2542;SDS011;1116;51.502;7.414;2023-07-20T04:00:00;13.30;;;11.17;;
2542;SDS011;1116;51.502;7.414;2023-07-20T04:02:34;14.73;;;11.43;;
2542;SDS011;1116;51.502;7.414;2023-07-20T04:05:08;15.63;;;10.87;;
2542;SDS011;1116;51.502;7.414;2023-07-20T04:07:39;14.80;;;12.10;;
2542;SDS011;1116;51.502;7.414;2023-07-20T04:10:10;12.10;;;10.90;;
2542;SDS011;1116;51.502;7.414;2023-07-20T04:12:41;15.13;;;12.40;;
2542;SDS011;1116;51.502;7.414;2023-07-20T04:15:12;16.20;;;14.20;;
2542;SDS011;1116;51.502;7.414;2023-07-20T04:17:44;16.40;;;14.70;;
2542;SDS011;1116;51.502;7.414;2023-07-20T04:20:18;18.53;;;15.23;;
2542;SDS011;1116;51.502;7.414;2023-07-20T04:22:49;16.97;;;15.10;;
2542;SDS011;1116;51.502;7.414;2023-07-20T04:25:21;18.70;;;14.90;;
2542;SDS011;1116;51.502;7.414;2023-07-20T04:27:52;17.70;;;14.60;;
2542;SDS011;1116;51.502;7.414;2023-07-20T04:30:23;29.20;;;21.63;;
2542;SDS011;1116;51.502;7.414;2023-07-20T04:32:54;27.20;;;23.00;;
2542;SDS011;1116;51.502;7.414;2023-07-20T04:38:21;30.60;;;25.40;;
2542;SDS011;1116;51.502;7.414;2023-07-20T04:40:52;30.23;;;24.50;;
2542;SDS011;1116;51.502;7.414;2023-07-20T04:43:23;31.60;;;23.73;;
2542;SDS011;1116;51.502;7.414;2023-07-20T04:45:54;26.90;;;23.10;;
2542;SDS011;1116;51.502;7.414;2023-07-20T04:48:26;24.77;;;21.33;;
2542;SDS011;1116;51.502;7.414;2023-07-20T04:50:59;22.10;;;19.23;;
2542;SDS011;1116;51.502;7.414;2023-07-20T04:53:30;18.80;;;16.73;;
2542;SDS011;1116;51.502;7.414;2023-07-20T04:56:02;23.87;;;20.10;;
2542;SDS011;1116;51.502;7.414;2023-07-20T04:58:33;18.90;;;16.90;;
2542;SDS011;1116;51.502;7.414;2023-07-20T05:01:04;19.70;;;17.70;;
2542;SDS011;1116;51.502;7.414;2023-07-20T05:03:35;24.87;;;18.60;;
2542;SDS011;1116;51.502;7.414;2023-07-20T05:06:09;20.00;;;18.00;;
2542;SDS011;1116;51.502;7.414;2023-07-20T05:08:40;16.80;;;15.10;;
2542;SDS011;1116;51.502;7.414;2023-07-20T05:11:11;15.00;;;13.60;;
2542;SDS011;1116;51.502;7.414;2023-07-20T05:13:43;15.53;;;13.73;;
2542;SDS011;1116;51.502;7.414;2023-07-20T05:16:14;14.90;;;13.60;;
2542;SDS011;1116;51.502;7.414;2023-07-20T05:18:45;14.93;;;13.63;;
2542;SDS011;1116;51.502;7.414;2023-07-20T05:21:18;14.37;;;12.97;;
2542;SDS011;1116;51.502;7.414;2023-07-20T05:23:49;13.63;;;12.37;;
2542;SDS011;1116;51.502;7.414;2023-07-20T05:26:20;14.03;;;12.73;;
2542;SDS011;1116;51.502;7.414;2023-07-20T05:28:52;14.03;;;12.50;;
2542;SDS011;1116;51.502;7.414;2023-07-20T05:31:22;14.97;;;13.37;;
2542;SDS011;1116;51.502;7.414;2023-07-20T05:33:54;12.60;;;11.43;;
2542;SDS011;1116;51.502;7.414;2023-07-20T05:36:27;12.87;;;11.60;;
2542;SDS011;1116;51.502;7.414;2023-07-20T05:38:58;11.10;;;10.10;;
2542;SDS011;1116;51.502;7.414;2023-07-20T05:41:29;10.33;;;9.43;;
2542;SDS011;1116;51.502;7.414;2023-07-20T05:44:02;10.23;;;9.30;;
2542;SDS011;1116;51.502;7.414;2023-07-20T05:46:33;10.10;;;9.20;;
2542;SDS011;1116;51.502;7.414;2023-07-20T05:49:23;10.93;;;9.83;;
2542;SDS011;1116;51.502;7.414;2023-07-20T05:51:56;11.50;;;10.40;;
2542;SDS011;1116;51.502;7.414;2023-07-20T05:54:28;10.97;;;9.87;;
2542;SDS011;1116;51.502;7.414;2023-07-20T05:56:59;10.63;;;9.53;;
2542;SDS011;1116;51.502;7.414;2023-07-20T05:59:30;10.53;;;9.23;;
2542;SDS011;1116;51.502;7.414;2023-07-20T06:02:01;9.10;;;8.30;;
2542;SDS011;1116;51.502;7.414;2023-07-20T06:04:32;9.27;;;8.37;;
2542;SDS011;1116;51.502;7.414;2023-07-20T06:07:06;9.40;;;8.60;;
2542;SDS011;1116;51.502;7.414;2023-07-20T06:09:37;9.50;;;8.70;;
2542;SDS011;1116;51.502;7.414;2023-07-20T06:12:09;10.87;;;9.97;;
2542;SDS011;1116;51.502;7.414;2023-07-20T06:14:40;9.73;;;8.67;;
2542;SDS011;1116;51.502;7.414;2023-07-20T06:17:11;9.83;;;8.37;;
2542;SDS011;1116;51.502;7.414;2023-07-20T06:19:42;8.30;;;7.60;;
2542;SDS011;1116;51.502;7.414;2023-07-20T06:22:15;8.20;;;7.40;;
2542;SDS011;1116;51.502;7.414;2023-07-20T06:24:46;7.77;;;6.90;;
2542;SDS011;1116;51.502;7.414;2023-07-20T06:27:17;7.53;;;6.93;;
2542;SDS011;1116;51.502;7.414;2023-07-20T06:29:48;7.43;;;6.80;;
2542;SDS011;1116;51.502;7.414;2023-07-20T06:32:19;7.10;;;6.50;;
2542;SDS011;1116;51.502;7.414;2023-07-20T06:34:50;6.63;;;6.03;;
2542;SDS011;1116;51.502;7.414;2023-07-20T06:37:23;6.50;;;5.90;;
2542;SDS011;1116;51.502;7.414;2023-07-20T06:39:54;6.53;;;6.03;;
2542;SDS011;1116;51.502;7.414;2023-07-20T06:42:28;4.43;;;4.03;;
2542;SDS011;1116;51.502;7.414;2023-07-20T06:45:02;3.83;;;3.53;;
2542;SDS011;1116;51.502;7.414;2023-07-20T06:47:34;3.90;;;3.53;;
2542;SDS011;1116;51.502;7.414;2023-07-20T06:50:05;3.63;;;3.33;;
2542;SDS011;1116;51.502;7.414;2023-07-20T06:52:46;3.33;;;3.03;;
2542;SDS011;1116;51.502;7.414;2023-07-20T06:55:17;2.97;;;2.77;;
2542;SDS011;1116;51.502;7.414;2023-07-20T06:57:50;3.23;;;3.03;;
2542;SDS011;1116;51.502;7.414;2023-07-20T07:00:26;2.70;;;2.50;;
2542;SDS011;1116;51.502;7.414;2023-07-20T07:02:57;3.37;;;3.07;;
2542;SDS011;1116;51.502;7.414;2023-07-20T07:05:28;3.47;;;3.17;;
2542;SDS011;1116;51.502;7.414;2023-07-20T07:08:06;4.57;;;3.20;;
2542;SDS011;1116;51.502;7.414;2023-07-20T07:10:37;2.50;;;2.37;;
2542;SDS011;1116;51.502;7.414;2023-07-20T07:13:08;3.70;;;2.87;;
2542;SDS011;1116;51.502;7.414;2023-07-20T07:15:39;4.70;;;3.77;;
2542;SDS011;1116;51.502;7.414;2023-07-20T07:18:10;4.00;;;3.30;;
2542;SDS011;1116;51.502;7.414;2023-07-20T07:20:42;4.73;;;3.20;;
2542;SDS011;1116;51.502;7.414;2023-07-20T07:23:23;4.67;;;2.87;;
2542;SDS011;1116;51.502;7.414;2023-07-20T07:25:54;3.70;;;3.40;;
2542;SDS011;1116;51.502;7.414;2023-07-20T07:28:25;4.07;;;3.73;;
2542;SDS011;1116;51.502;7.414;2023-07-20T07:30:58;4.20;;;3.50;;
2542;SDS011;1116;51.502;7.414;2023-07-20T07:33:28;3.70;;;3.40;;
2542;SDS011;1116;51.502;7.414;2023-07-20T07:35:59;3.63;;;3.27;;
2542;SDS011;1116;51.502;7.414;2023-07-20T07:38:33;3.40;;;2.97;;
2542;SDS011;1116;51.502;7.414;2023-07-20T07:41:24;2.70;;;2.50;;
2542;SDS011;1116;51.502;7.414;2023-07-20T07:43:55;4.17;;;3.10;;
2542;SDS011;1116;51.502;7.414;2023-07-20T07:46:26;4.20;;;3.87;;
2542;SDS011;1116;51.502;7.414;2023-07-20T07:48:57;3.13;;;2.90;;
2542;SDS011;1116;51.502;7.414;2023-07-20T07:51:29;3.80;;;3.50;;
2542;SDS011;1116;51.502;7.414;2023-07-20T07:54:02;3.50;;;3.20;;
2542;SDS011;1116;51.502;7.414;2023-07-20T07:56:34;1.63;;;1.53;;
2542;SDS011;1116;51.502;7.414;2023-07-20T07:59:05;2.63;;;1.80;;
2542;SDS011;1116;51.502;7.414;2023-07-20T08:01:36;2.07;;;1.97;;
2542;SDS011;1116;51.502;7.414;2023-07-20T08:04:07;2.60;;;2.40;;
2542;SDS011;1116;51.502;7.414;2023-07-20T08:06:38;2.03;;;1.90;;
2542;SDS011;1116;51.502;7.414;2023-07-20T08:09:15;2.07;;;1.80;;
2542;SDS011;1116;51.502;7.414;2023-07-20T08:11:46;2.17;;;2.07;;
2542;SDS011;1116;51.502;7.414;2023-07-20T08:14:17;2.03;;;1.83;;
2542;SDS011;1116;51.502;7.414;2023-07-20T08:16:48;1.67;;;1.57;;
2542;SDS011;1116;51.502;7.414;2023-07-20T08:19:20;1.97;;;1.80;;
2542;SDS011;1116;51.502;7.414;2023-07-20T08:21:51;2.50;;;2.20;;
2542;SDS011;1116;51.502;7.414;2023-07-20T08:24:25;3.50;;;2.17;;
2542;SDS011;1116;51.502;7.414;2023-07-20T08:26:57;2.57;;;1.90;;
2542;SDS011;1116;51.502;7.414;2023-07-20T08:29:28;2.07;;;1.97;;
2542;SDS011;1116;51.502;7.414;2023-07-20T08:31:59;2.33;;;1.60;;
2542;SDS011;1116;51.502;7.414;2023-07-20T08:34:30;1.57;;;1.47;;
2542;SDS011;1116;51.502;7.414;2023-07-20T08:37:01;2.37;;;1.30;;
2542;SDS011;1116;51.502;7.414;2023-07-20T08:39:35;1.80;;;1.10;;
2542;SDS011;1116;51.502;7.414;2023-07-20T08:42:06;2.30;;;1.30;;
2542;SDS011;1116;51.502;7.414;2023-07-20T08:44:38;1.83;;;1.70;;
2542;SDS011;1116;51.502;7.414;2023-07-20T08:47:11;1.87;;;1.77;;
2542;SDS011;1116;51.502;7.414;2023-07-20T08:49:47;2.50;;;1.63;;
2542;SDS011;1116;51.502;7.414;2023-07-20T08:52:19;2.33;;;1.90;;
2542;SDS011;1116;51.502;7.414;2023-07-20T08:54:52;2.23;;;1.50;;
2542;SDS011;1116;51.502;7.414;2023-07-20T08:57:23;1.30;;;1.10;;
2542;SDS011;1116;51.502;7.414;2023-07-20T08:59:54;1.40;;;1.20;;
2542;SDS011;1116;51.502;7.414;2023-07-20T09:02:26;1.93;;;1.10;;
2542;SDS011;1116;51.502;7.414;2023-07-20T09:04:58;1.27;;;1.10;;
2542;SDS011;1116;51.502;7.414;2023-07-20T09:07:29;1.43;;;1.00;;
2542;SDS011;1116;51.502;7.414;2023-07-20T09:10:03;1.30;;;1.10;;
2542;SDS011;1116;51.502;7.414;2023-07-20T09:12:36;1.33;;;1.23;;
2542;SDS011;1116;51.502;7.414;2023-07-20T09:15:08;1.40;;;1.30;;
2542;SDS011;1116;51.502;7.414;2023-07-20T09:17:44;1.33;;;1.23;;
2542;SDS011;1116;51.502;7.414;2023-07-20T09:20:17;1.17;;;1.07;;
2542;SDS011;1116;51.502;7.414;2023-07-20T09:22:50;1.80;;;1.10;;
2542;SDS011;1116;51.502;7.414;2023-07-20T09:25:25;1.20;;;0.80;;
2542;SDS011;1116;51.502;7.414;2023-07-20T09:27:59;1.03;;;1.03;;
2542;SDS011;1116;51.502;7.414;2023-07-20T09:30:33;1.60;;;1.27;;
2542;SDS011;1116;51.502;7.414;2023-07-20T09:33:05;1.00;;;0.87;;
2542;SDS011;1116;51.502;7.414;2023-07-20T09:35:51;1.20;;;1.10;;
2542;SDS011;1116;51.502;7.414;2023-07-20T09:38:28;1.97;;;1.10;;
2542;SDS011;1116;51.502;7.414;2023-07-20T09:41:22;1.20;;;1.10;;
2542;SDS011;1116;51.502;7.414;2023-07-20T09:43:56;2.27;;;1.00;;
2542;SDS011;1116;51.502;7.414;2023-07-20T09:46:40;1.93;;;1.10;;
2542;SDS011;1116;51.502;7.414;2023-07-20T09:49:14;1.70;;;0.90;;
2542;SDS011;1116;51.502;7.414;2023-07-20T09:51:50;0.90;;;0.90;;
2542;SDS011;1116;51.502;7.414;2023-07-20T09:54:23;1.13;;;1.03;;
2542;SDS011;1116;51.502;7.414;2023-07-20T09:56:59;2.00;;;1.00;;
2542;SDS011;1116;51.502;7.414;2023-07-20T09:59:32;1.13;;;0.87;;
2542;SDS011;1116;51.502;7.414;2023-07-20T10:02:04;1.03;;;0.97;;
2542;SDS011;1116;51.502;7.414;2023-07-20T10:04:42;0.80;;;0.80;;
2542;SDS011;1116;51.502;7.414;2023-07-20T10:07:14;2.60;;;0.90;;
2542;SDS011;1116;51.502;7.414;2023-07-20T10:09:48;0.60;;;0.60;;
2542;SDS011;1116;51.502;7.414;2023-07-20T10:12:25;2.23;;;1.40;;
2542;SDS011;1116;51.502;7.414;2023-07-20T10:15:04;1.40;;;1.30;;
2542;SDS011;1116;51.502;7.414;2023-07-20T10:17:43;1.10;;;1.03;;
2542;SDS011;1116;51.502;7.414;2023-07-20T10:20:19;3.60;;;1.27;;
2542;SDS011;1116;51.502;7.414;2023-07-20T10:22:53;1.27;;;1.20;;
2542;SDS011;1116;51.502;7.414;2023-07-20T10:25:25;3.00;;;1.20;;
2542;SDS011;1116;51.502;7.414;2023-07-20T10:28:01;1.70;;;1.17;;
2542;SDS011;1116;51.502;7.414;2023-07-20T10:30:33;1.20;;;1.10;;
2542;SDS011;1116;51.502;7.414;2023-07-20T10:33:05;1.37;;;1.23;;
2542;SDS011;1116;51.502;7.414;2023-07-20T10:38:39;0.97;;;0.87;;
2542;SDS011;1116;51.502;7.414;2023-07-20T10:41:17;1.00;;;1.00;;
2542;SDS011;1116;51.502;7.414;2023-07-20T10:43:55;1.60;;;1.50;;
2542;SDS011;1116;51.502;7.414;2023-07-20T10:46:36;1.50;;;1.40;;
2542;SDS011;1116;51.502;7.414;2023-07-20T10:49:14;1.43;;;1.33;;
2542;SDS011;1116;51.502;7.414;2023-07-20T10:51:49;2.30;;;1.50;;
2542;SDS011;1116;51.502;7.414;2023-07-20T10:54:34;1.30;;;1.20;;
2542;SDS011;1116;51.502;7.414;2023-07-20T11:00:10;1.57;;;1.47;;
2542;SDS011;1116;51.502;7.414;2023-07-20T11:02:43;1.40;;;1.27;;
2542;SDS011;1116;51.502;7.414;2023-07-20T11:05:34;1.63;;;1.40;;
2542;SDS011;1116;51.502;7.414;2023-07-20T11:08:09;1.33;;;1.23;;
2542;SDS011;1116;51.502;7.414;2023-07-20T11:10:42;1.50;;;1.40;;
2542;SDS011;1116;51.502;7.414;2023-07-20T11:13:16;1.50;;;1.40;;
2542;SDS011;1116;51.502;7.414;2023-07-20T11:16:03;1.60;;;1.50;;
2542;SDS011;1116;51.502;7.414;2023-07-20T11:18:35;1.67;;;1.40;;
2542;SDS011;1116;51.502;7.414;2023-07-20T11:21:09;1.57;;;1.47;;
2542;SDS011;1116;51.502;7.414;2023-07-20T11:23:41;1.70;;;1.60;;
2542;SDS011;1116;51.502;7.414;2023-07-20T11:26:14;2.00;;;1.40;;
2542;SDS011;1116;51.502;7.414;2023-07-20T11:28:48;2.20;;;1.57;;
2542;SDS011;1116;51.502;7.414;2023-07-20T11:31:22;1.50;;;1.40;;
2542;SDS011;1116;51.502;7.414;2023-07-20T11:33:53;1.90;;;1.80;;
2542;SDS011;1116;51.502;7.414;2023-07-20T11:36:39;2.07;;;1.97;;
2542;SDS011;1116;51.502;7.414;2023-07-20T11:39:14;1.70;;;1.60;;
2542;SDS011;1116;51.502;7.414;2023-07-20T11:41:47;1.70;;;1.60;;
2542;SDS011;1116;51.502;7.414;2023-07-20T11:44:19;1.90;;;1.80;;
2542;SDS011;1116;51.502;7.414;2023-07-20T11:47:03;2.90;;;1.97;;
2542;SDS011;1116;51.502;7.414;2023-07-20T11:49:36;2.23;;;2.13;;
2542;SDS011;1116;51.502;7.414;2023-07-20T11:52:08;2.33;;;2.20;;
2542;SDS011;1116;51.502;7.414;2023-07-20T11:54:41;1.80;;;1.70;;
2542;SDS011;1116;51.502;7.414;2023-07-20T11:57:16;1.70;;;1.60;;
2542;SDS011;1116;51.502;7.414;2023-07-20T11:59:54;1.87;;;1.77;;
2542;SDS011;1116;51.502;7.414;2023-07-20T12:02:29;1.90;;;1.80;;
2542;SDS011;1116;51.502;7.414;2023-07-20T12:05:01;2.33;;;1.63;;
2542;SDS011;1116;51.502;7.414;2023-07-20T12:07:35;1.80;;;1.70;;
2542;SDS011;1116;51.502;7.414;2023-07-20T12:10:08;1.83;;;1.73;;
2542;SDS011;1116;51.502;7.414;2023-07-20T12:12:41;1.30;;;1.20;;
2542;SDS011;1116;51.502;7.414;2023-07-20T12:15:13;1.67;;;1.57;;
2542;SDS011;1116;51.502;7.414;2023-07-20T12:17:49;1.63;;;1.53;;
2542;SDS011;1116;51.502;7.414;2023-07-20T12:20:25;3.30;;;1.63;;
2542;SDS011;1116;51.502;7.414;2023-07-20T12:22:59;1.77;;;1.67;;
2542;SDS011;1116;51.502;7.414;2023-07-20T12:25:42;1.67;;;1.30;;
2542;SDS011;1116;51.502;7.414;2023-07-20T12:28:18;2.20;;;1.30;;
2542;SDS011;1116;51.502;7.414;2023-07-20T12:30:50;1.10;;;1.03;;
2542;SDS011;1116;51.502;7.414;2023-07-20T12:33:26;0.97;;;0.97;;
2542;SDS011;1116;51.502;7.414;2023-07-20T12:35:57;2.20;;;1.40;;
2542;SDS011;1116;51.502;7.414;2023-07-20T12:38:28;1.90;;;1.00;;
2542;SDS011;1116;51.502;7.414;2023-07-20T12:41:00;1.27;;;1.17;;
2542;SDS011;1116;51.502;7.414;2023-07-20T12:43:31;1.13;;;1.03;;
2542;SDS011;1116;51.502;7.414;2023-07-20T12:46:02;2.40;;;1.33;;
2542;SDS011;1116;51.502;7.414;2023-07-20T12:48:36;1.90;;;1.10;;
2542;SDS011;1116;51.502;7.414;2023-07-20T12:51:12;1.80;;;1.20;;
2542;SDS011;1116;51.502;7.414;2023-07-20T12:53:43;1.27;;;1.17;;
2542;SDS011;1116;51.502;7.414;2023-07-20T12:56:14;2.00;;;1.40;;
2542;SDS011;1116;51.502;7.414;2023-07-20T12:58:49;1.00;;;0.90;;
2542;SDS011;1116;51.502;7.414;2023-07-20T13:01:20;1.50;;;1.17;;
2542;SDS011;1116;51.502;7.414;2023-07-20T13:03:54;1.03;;;0.93;;
2542;SDS011;1116;51.502;7.414;2023-07-20T13:06:28;1.20;;;1.20;;
2542;SDS011;1116;51.502;7.414;2023-07-20T13:09:01;0.83;;;0.83;;
2542;SDS011;1116;51.502;7.414;2023-07-20T13:11:32;1.90;;;1.17;;
2542;SDS011;1116;51.502;7.414;2023-07-20T13:14:03;1.20;;;1.10;;
2542;SDS011;1116;51.502;7.414;2023-07-20T13:16:34;3.20;;;1.10;;
2542;SDS011;1116;51.502;7.414;2023-07-20T13:19:08;1.30;;;1.20;;
2542;SDS011;1116;51.502;7.414;2023-07-20T13:21:39;3.30;;;1.20;;
2542;SDS011;1116;51.502;7.414;2023-07-20T13:24:10;1.50;;;1.40;;
2542;SDS011;1116;51.502;7.414;2023-07-20T13:26:41;1.53;;;1.43;;
2542;SDS011;1116;51.502;7.414;2023-07-20T13:29:12;2.70;;;1.30;;
2542;SDS011;1116;51.502;7.414;2023-07-20T13:31:43;0.93;;;0.90;;
2542;SDS011;1116;51.502;7.414;2023-07-20T13:34:18;1.53;;;1.03;;
2542;SDS011;1116;51.502;7.414;2023-07-20T13:36:49;1.20;;;1.10;;
2542;SDS011;1116;51.502;7.414;2023-07-20T13:39:20;1.17;;;1.07;;
2542;SDS011;1116;51.502;7.414;2023-07-20T13:41:51;1.80;;;1.30;;
2542;SDS011;1116;51.502;7.414;2023-07-20T13:44:23;1.50;;;1.10;;
2542;SDS011;1116;51.502;7.414;2023-07-20T13:46:57;1.33;;;1.23;;
2542;SDS011;1116;51.502;7.414;2023-07-20T13:49:38;1.80;;;1.00;;
2542;SDS011;1116;51.502;7.414;2023-07-20T13:52:14;1.47;;;1.00;;
2542;SDS011;1116;51.502;7.414;2023-07-20T13:54:52;2.00;;;1.67;;
2542;SDS011;1116;51.502;7.414;2023-07-20T13:57:25;1.43;;;1.00;;
2542;SDS011;1116;51.502;7.414;2023-07-20T14:00:02;1.37;;;1.10;;
2542;SDS011;1116;51.502;7.414;2023-07-20T14:02:38;1.17;;;0.90;;
2542;SDS011;1116;51.502;7.414;2023-07-20T14:05:14;1.73;;;1.10;;
2542;SDS011;1116;51.502;7.414;2023-07-20T14:07:49;2.03;;;1.07;;
2542;SDS011;1116;51.502;7.414;2023-07-20T14:10:20;1.43;;;1.13;;
2542;SDS011;1116;51.502;7.414;2023-07-20T14:12:56;3.33;;;1.10;;
2542;SDS011;1116;51.502;7.414;2023-07-20T14:15:26;1.30;;;1.20;;
2542;SDS011;1116;51.502;7.414;2023-07-20T14:17:57;1.40;;;1.30;;
2542;SDS011;1116;51.502;7.414;2023-07-20T14:20:31;2.23;;;1.33;;
2542;SDS011;1116;51.502;7.414;2023-07-20T14:23:05;6.73;;;1.50;;
2542;SDS011;1116;51.502;7.414;2023-07-20T14:25:36;1.27;;;1.17;;
2542;SDS011;1116;51.502;7.414;2023-07-20T14:28:07;1.43;;;1.33;;
2542;SDS011;1116;51.502;7.414;2023-07-20T14:30:39;5.47;;;1.13;;
2542;SDS011;1116;51.502;7.414;2023-07-20T14:33:13;1.50;;;1.40;;
2542;SDS011;1116;51.502;7.414;2023-07-20T14:35:47;2.03;;;1.47;;
2542;SDS011;1116;51.502;7.414;2023-07-20T14:38:31;1.30;;;1.20;;
2542;SDS011;1116;51.502;7.414;2023-07-20T14:41:03;1.20;;;1.10;;
2542;SDS011;1116;51.502;7.414;2023-07-20T14:43:35;1.60;;;1.50;;
2542;SDS011;1116;51.502;7.414;2023-07-20T14:46:06;1.50;;;1.40;;
2542;SDS011;1116;51.502;7.414;2023-07-20T14:48:37;2.40;;;1.50;;
2542;SDS011;1116;51.502;7.414;2023-07-20T14:51:10;1.20;;;1.10;;
2542;SDS011;1116;51.502;7.414;2023-07-20T14:53:41;1.13;;;1.03;;
2542;SDS011;1116;51.502;7.414;2023-07-20T14:56:12;1.10;;;1.00;;
2542;SDS011;1116;51.502;7.414;2023-07-20T14:58:43;5.10;;;1.53;;
2542;SDS011;1116;51.502;7.414;2023-07-20T15:01:14;1.30;;;1.20;;
2542;SDS011;1116;51.502;7.414;2023-07-20T15:03:46;1.30;;;1.23;;
2542;SDS011;1116;51.502;7.414;2023-07-20T15:06:22;1.33;;;1.20;;
2542;SDS011;1116;51.502;7.414;2023-07-20T15:08:53;2.77;;;1.80;;
2542;SDS011;1116;51.502;7.414;2023-07-20T15:11:24;1.67;;;1.50;;
2542;SDS011;1116;51.502;7.414;2023-07-20T15:13:55;2.50;;;1.63;;
2542;SDS011;1116;51.502;7.414;2023-07-20T15:16:26;1.20;;;1.10;;
2542;SDS011;1116;51.502;7.414;2023-07-20T15:18:57;1.33;;;1.20;;
2542;SDS011;1116;51.502;7.414;2023-07-20T15:21:31;1.47;;;1.37;;
2542;SDS011;1116;51.502;7.414;2023-07-20T15:24:02;2.27;;;1.20;;
2542;SDS011;1116;51.502;7.414;2023-07-20T15:26:33;2.40;;;1.00;;
2542;SDS011;1116;51.502;7.414;2023-07-20T15:29:04;1.53;;;1.43;;
2542;SDS011;1116;51.502;7.414;2023-07-20T15:31:55;1.63;;;1.10;;
2542;SDS011;1116;51.502;7.414;2023-07-20T15:34:27;1.30;;;1.20;;
2542;SDS011;1116;51.502;7.414;2023-07-20T15:37:01;1.13;;;1.03;;
2542;SDS011;1116;51.502;7.414;2023-07-20T15:39:35;1.73;;;1.30;;
2542;SDS011;1116;51.502;7.414;2023-07-20T15:42:11;1.80;;;1.50;;
2542;SDS011;1116;51.502;7.414;2023-07-20T15:44:45;2.33;;;1.40;;
2542;SDS011;1116;51.502;7.414;2023-07-20T15:47:19;2.13;;;1.40;;
2542;SDS011;1116;51.502;7.414;2023-07-20T15:49:50;1.57;;;1.47;;
2542;SDS011;1116;51.502;7.414;2023-07-20T15:52:24;1.30;;;1.20;;
2542;SDS011;1116;51.502;7.414;2023-07-20T15:54:57;1.90;;;1.60;;